Boyden, Iowa
Current Conditions -  °F | °C
As of 6:35 PM on Saturday 25 Oct 2014 (Local Time) from KSHL Reporting Station
Clear Clear  
Wind Chill: 55°   Ceiling: Unl
Heat Index: 55°   Visibility: 7mi
Dew Point: 34°   Wind: 7mph
Humidity: 44%   Direction: 40°NE
Pressure: 30.06"   Gusts: NA
Location:  43.19°N, 96.01°W
Report Text: KSHL 252335Z AUTO 04006KT 7SM CLR 13/01 A3006 RMK AO2
Loading
Personal Weather Stations






























Interactive Weather Map
Tropical Storm Tracking
New forecast layout! Learn more

10-Day Weather Forecast

Advertisements
Track Severe Weather on mobile